createdAt,value
2023-02-06T00:07:53.002Z,73.42
2023-02-06T00:17:51.833Z,74.20
2023-02-06T00:27:51.561Z,75.71
2023-02-06T00:37:51.294Z,75.36
2023-02-06T00:47:51.124Z,75.68
2023-02-06T00:57:50.823Z,75.67
2023-02-06T01:07:50.738Z,75.41
2023-02-06T01:17:50.364Z,76.38
2023-02-06T01:27:50.439Z,76.63
2023-02-06T01:37:50.043Z,75.30
2023-02-06T01:47:49.622Z,74.92
2023-02-06T01:57:49.400Z,74.79
2023-02-06T02:07:49.196Z,74.21
2023-02-06T02:17:48.937Z,75.45
2023-02-06T02:27:48.635Z,81.75
2023-02-06T02:37:48.312Z,79.65
2023-02-06T02:47:48.007Z,79.06
2023-02-06T02:57:47.715Z,78.43
2023-02-06T03:07:47.376Z,79.10
2023-02-06T03:17:47.005Z,78.79
2023-02-06T03:27:46.744Z,78.18
2023-02-06T03:37:46.426Z,78.63
2023-02-06T03:47:46.060Z,78.18
2023-02-06T03:57:45.768Z,79.72
2023-02-06T04:07:45.416Z,79.62
2023-02-06T04:17:58.833Z,79.52
2023-02-06T04:27:44.668Z,79.65
2023-02-06T04:37:44.254Z,78.63
2023-02-06T04:47:43.911Z,78.66
2023-02-06T04:57:43.539Z,77.35
2023-02-06T05:07:43.289Z,77.55
2023-02-06T05:17:42.951Z,77.02
2023-02-06T05:27:42.657Z,77.68
2023-02-06T05:37:42.377Z,78.90
2023-02-06T05:47:42.058Z,78.06
2023-02-06T05:57:41.793Z,78.51
2023-02-06T06:07:41.488Z,79.90
2023-02-06T06:17:41.104Z,79.73
2023-02-06T06:27:40.750Z,80.15
2023-02-06T06:37:40.381Z,80.32
2023-02-06T06:47:40.024Z,80.43
2023-02-06T06:57:39.701Z,78.87
2023-02-06T07:07:39.628Z,78.48
2023-02-06T07:17:39.269Z,78.55
2023-02-06T07:27:38.851Z,78.16
2023-02-06T07:37:38.559Z,78.09
2023-02-06T07:47:38.356Z,75.63
2023-02-06T07:57:38.025Z,73.42
2023-02-06T08:07:37.823Z,68.90
2023-02-06T08:17:38.912Z,64.03
2023-02-06T08:27:37.569Z,58.87
2023-02-06T08:37:37.555Z,57.25
2023-02-06T08:47:37.631Z,54.42
2023-02-06T08:57:37.737Z,53.98
2023-02-06T09:07:39.119Z,51.55
2023-02-06T09:17:38.254Z,49.42
2023-02-06T09:27:38.270Z,47.63
2023-02-06T09:37:38.579Z,45.83
2023-02-06T09:47:39.115Z,45.81
2023-02-06T09:57:39.327Z,44.56
2023-02-06T10:17:39.604Z,43.67
2023-02-06T10:27:39.739Z,44.67
2023-02-06T10:37:40.168Z,45.10
2023-02-06T10:47:40.141Z,46.23
2023-02-06T10:57:40.093Z,44.61
2023-02-06T11:07:41.137Z,44.88
2023-02-06T11:17:40.128Z,44.97
2023-02-06T11:37:40.618Z,45.00
2023-02-06T11:47:40.367Z,45.71
2023-02-06T11:57:40.419Z,45.66
2023-02-06T12:07:40.505Z,45.18
2023-02-06T12:17:40.599Z,46.17
2023-02-06T12:27:41.498Z,47.54
2023-02-06T12:37:41.030Z,46.66
2023-02-06T12:47:41.882Z,47.13
2023-02-06T12:57:40.975Z,47.70
2023-02-06T13:07:49.104Z,47.84
2023-02-06T13:17:40.918Z,47.84
2023-02-06T13:27:41.209Z,47.97
2023-02-06T13:37:40.937Z,48.36
2023-02-06T13:47:42.636Z,48.02
2023-02-06T13:57:41.110Z,47.33
2023-02-06T14:17:42.154Z,46.45
2023-02-06T14:27:42.250Z,46.02
2023-02-06T14:47:40.954Z,46.97
2023-02-06T14:57:41.243Z,47.53
2023-02-06T15:07:41.209Z,47.22
2023-02-06T15:17:41.106Z,48.15
2023-02-06T15:27:41.437Z,48.46
2023-02-06T15:37:41.182Z,48.84
2023-02-06T15:57:44.514Z,50.48
2023-02-06T16:07:41.423Z,50.35
2023-02-06T16:17:42.915Z,50.90
2023-02-06T16:27:42.523Z,51.38
2023-02-06T16:37:43.507Z,51.79
2023-02-06T16:47:41.628Z,52.45
2023-02-06T16:57:41.650Z,52.62
2023-02-06T17:07:45.127Z,53.23
2023-02-06T17:17:41.634Z,54.54
2023-02-06T17:27:43.044Z,55.02
2023-02-06T17:37:41.695Z,55.83
2023-02-06T17:47:42.514Z,56.04
2023-02-06T17:57:41.377Z,57.08
2023-02-06T18:04:35.466Z,58.65
2023-02-06T18:07:41.265Z,58.65
2023-02-06T18:17:43.577Z,59.52
2023-02-06T18:27:43.398Z,60.39
2023-02-06T18:37:43.183Z,61.50
2023-02-06T18:47:41.132Z,62.19
2023-02-06T18:57:42.232Z,63.06
2023-02-06T19:07:40.771Z,65.22
2023-02-06T19:17:42.536Z,64.04
2023-02-06T19:27:40.889Z,64.81
2023-02-06T19:37:41.396Z,65.42
2023-02-06T19:47:40.086Z,69.37
2023-02-06T19:57:41.013Z,68.23
2023-02-06T20:07:39.589Z,69.32
2023-02-06T20:17:39.863Z,68.14
2023-02-06T20:27:39.162Z,68.29
2023-02-06T20:37:39.835Z,68.35
2023-02-06T20:47:38.738Z,68.87
2023-02-06T20:57:38.243Z,69.71
2023-02-06T21:07:39.172Z,70.24
2023-02-06T21:17:37.939Z,70.13
2023-02-06T21:27:39.113Z,70.89
2023-02-06T21:37:38.661Z,70.78
2023-02-06T21:47:37.156Z,72.30
2023-02-06T21:57:36.945Z,71.92
2023-02-06T22:07:36.810Z,72.61
2023-02-06T22:17:36.578Z,73.12
2023-02-06T22:27:36.229Z,73.67
2023-02-06T22:37:35.927Z,73.54
2023-02-06T22:47:35.855Z,74.66
2023-02-06T22:57:35.344Z,75.58
2023-02-06T23:07:35.178Z,75.97
2023-02-06T23:17:34.841Z,76.15
2023-02-06T23:27:34.620Z,75.95
2023-02-06T23:37:33.929Z,76.63
2023-02-06T23:47:33.568Z,76.03
2023-02-06T23:57:33.471Z,75.38
